createdAt,value
2023-02-07T00:01:35.975Z,3.70
2023-02-07T00:04:02.834Z,3.70
2023-02-07T00:06:33.732Z,3.60
2023-02-07T00:09:02.165Z,3.60
2023-02-07T00:11:31.186Z,3.60
2023-02-07T00:14:02.398Z,3.60
2023-02-07T00:16:29.185Z,3.60
2023-02-07T00:19:00.516Z,3.60
2023-02-07T00:21:28.790Z,3.50
2023-02-07T00:23:55.719Z,3.50
2023-02-07T00:26:24.334Z,3.50
2023-02-07T00:28:55.395Z,3.40
2023-02-07T00:31:30.282Z,3.40
2023-02-07T00:34:01.187Z,3.40
2023-02-07T00:36:45.115Z,3.40
2023-02-07T00:39:15.743Z,3.40
2023-02-07T00:41:45.797Z,3.30
2023-02-07T00:44:13.907Z,3.30
2023-02-07T00:46:43.577Z,3.20
2023-02-07T00:49:10.671Z,3.20
2023-02-07T00:51:37.249Z,3.20
2023-02-07T00:54:04.684Z,3.20
2023-02-07T00:56:31.429Z,3.10
2023-02-07T00:58:58.342Z,3.10
2023-02-07T01:01:25.415Z,3.10
2023-02-07T01:03:52.082Z,3.10
2023-02-07T01:06:21.617Z,3.00
2023-02-07T01:08:48.436Z,3.00
2023-02-07T01:11:16.701Z,3.00
2023-02-07T01:13:44.445Z,3.00
2023-02-07T01:16:20.540Z,2.90
2023-02-07T01:18:47.850Z,2.90
2023-02-07T01:21:17.833Z,2.90
2023-02-07T01:23:46.760Z,2.90
2023-02-07T01:26:13.525Z,2.90
2023-02-07T01:28:42.778Z,2.80
2023-02-07T01:31:13.250Z,2.80
2023-02-07T01:33:40.029Z,2.80
2023-02-07T01:36:11.270Z,2.80
2023-02-07T01:38:37.998Z,2.80
2023-02-07T01:41:06.209Z,2.80
2023-02-07T01:43:34.138Z,2.70
2023-02-07T01:46:00.743Z,2.90
2023-02-07T01:48:34.682Z,2.70
2023-02-07T01:51:04.618Z,2.70
2023-02-07T01:53:34.879Z,2.70
2023-02-07T01:56:08.937Z,2.70
2023-02-07T01:58:38.486Z,2.70
2023-02-07T02:01:10.988Z,2.60
2023-02-07T02:03:44.073Z,2.60
2023-02-07T02:06:11.958Z,2.60
2023-02-07T02:08:39.177Z,2.60
2023-02-07T02:11:24.073Z,2.60
2023-02-07T02:13:59.053Z,2.60
2023-02-07T02:16:55.542Z,2.60
2023-02-07T02:19:40.376Z,2.60
2023-02-07T02:22:45.236Z,2.60
2023-02-07T02:25:33.669Z,2.50
2023-02-07T02:28:36.491Z,2.50
2023-02-07T02:31:18.679Z,2.50
2023-02-07T02:33:48.011Z,2.50
2023-02-07T02:36:27.178Z,2.50
2023-02-07T02:39:13.009Z,2.40
2023-02-07T02:42:05.601Z,2.40
2023-02-07T02:44:41.910Z,2.40
2023-02-07T02:47:11.545Z,2.40
2023-02-07T02:49:39.494Z,2.30
2023-02-07T02:52:09.405Z,2.30
2023-02-07T02:54:38.690Z,2.40
2023-02-07T02:57:30.690Z,2.30
2023-02-07T03:00:33.014Z,2.30
2023-02-07T03:03:15.181Z,2.20
2023-02-07T03:06:01.375Z,2.20
2023-02-07T03:08:41.351Z,2.20
2023-02-07T03:11:17.553Z,2.20
2023-02-07T03:14:18.625Z,2.20
2023-02-07T03:16:57.737Z,2.20
2023-02-07T03:20:02.478Z,2.20
2023-02-07T03:22:33.528Z,2.10
2023-02-07T03:25:04.561Z,2.10
2023-02-07T03:27:34.166Z,2.10
2023-02-07T03:30:07.624Z,2.10
2023-02-07T03:32:39.058Z,2.10
2023-02-07T03:35:20.283Z,2.10
2023-02-07T03:37:51.768Z,2.20
2023-02-07T03:40:20.075Z,2.00
2023-02-07T03:43:02.918Z,2.00
2023-02-07T03:45:29.660Z,2.00
2023-02-07T03:47:56.222Z,2.00
2023-02-07T03:50:28.318Z,2.00
2023-02-07T03:52:57.572Z,2.00
2023-02-07T03:55:24.146Z,1.90
2023-02-07T03:57:51.795Z,1.90
2023-02-07T04:00:21.000Z,1.90
2023-02-07T04:02:57.100Z,1.90
2023-02-07T04:05:23.649Z,1.90
2023-02-07T04:07:50.263Z,1.80
2023-02-07T04:10:16.925Z,1.80
2023-02-07T04:12:46.344Z,1.80
2023-02-07T04:15:13.271Z,1.80
2023-02-07T04:17:44.863Z,1.80
2023-02-07T04:20:12.288Z,1.80
2023-02-07T04:22:39.033Z,1.80
2023-02-07T04:25:08.402Z,1.70
2023-02-07T04:27:34.981Z,1.70
2023-02-07T04:30:05.127Z,1.70
2023-02-07T04:32:43.098Z,1.70
2023-02-07T04:35:12.153Z,1.70
2023-02-07T04:37:45.957Z,1.70
2023-02-07T04:40:15.378Z,1.70
2023-02-07T04:42:44.416Z,1.70
2023-02-07T04:45:10.990Z,1.70
2023-02-07T04:47:37.572Z,1.70
2023-02-07T04:50:07.191Z,1.70
2023-02-07T04:52:33.827Z,1.70
2023-02-07T04:55:00.444Z,1.70
2023-02-07T04:57:34.304Z,1.70
2023-02-07T05:00:00.987Z,1.70
2023-02-07T05:02:29.742Z,1.60
2023-02-07T05:04:56.741Z,1.60
2023-02-07T05:07:27.702Z,1.60
2023-02-07T05:09:54.311Z,1.60
2023-02-07T05:12:20.940Z,1.60
2023-02-07T05:14:47.550Z,1.50
2023-02-07T05:17:14.228Z,1.50
2023-02-07T05:19:46.405Z,1.50
2023-02-07T05:22:15.144Z,1.50
2023-02-07T05:24:45.072Z,1.50
2023-02-07T05:27:12.917Z,1.50
2023-02-07T05:29:41.946Z,1.50
2023-02-07T05:32:33.205Z,1.50
2023-02-07T05:35:02.407Z,1.50
2023-02-07T05:37:31.450Z,1.50
2023-02-07T05:39:57.987Z,1.50
2023-02-07T05:42:26.736Z,1.50
2023-02-07T05:44:55.530Z,1.40
2023-02-07T05:47:22.151Z,1.40
2023-02-07T05:49:48.825Z,1.40
2023-02-07T05:52:15.431Z,1.40
2023-02-07T05:54:44.862Z,1.40
2023-02-07T05:57:11.538Z,1.40
2023-02-07T05:59:40.507Z,1.30
2023-02-07T06:02:07.258Z,1.30
2023-02-07T06:04:33.866Z,1.30
2023-02-07T06:07:00.467Z,1.30
2023-02-07T06:09:29.305Z,1.30
2023-02-07T06:11:56.003Z,1.20
2023-02-07T06:14:25.366Z,1.20
2023-02-07T06:16:52.884Z,1.20
2023-02-07T06:19:20.011Z,1.30
2023-02-07T06:21:47.121Z,1.20
2023-02-07T06:24:15.655Z,1.20
2023-02-07T06:26:42.930Z,1.10
2023-02-07T06:29:09.537Z,1.20
2023-02-07T06:31:36.136Z,1.20
2023-02-07T06:34:02.740Z,1.20
2023-02-07T06:36:29.405Z,1.20
2023-02-07T06:38:58.085Z,1.20
2023-02-07T06:41:25.081Z,1.20
2023-02-07T06:43:51.734Z,1.20
2023-02-07T06:46:18.356Z,1.20
2023-02-07T06:48:44.962Z,1.20
2023-02-07T06:51:11.660Z,1.10
2023-02-07T06:53:38.211Z,1.10
2023-02-07T06:56:05.150Z,1.10
2023-02-07T06:58:31.867Z,1.10
2023-02-07T07:01:00.859Z,1.10
2023-02-07T07:03:29.216Z,1.10
2023-02-07T07:05:59.393Z,1.10
2023-02-07T07:08:26.798Z,1.10
2023-02-07T07:10:54.188Z,1.00
2023-02-07T07:13:20.906Z,1.00
2023-02-07T07:15:47.601Z,1.00
2023-02-07T07:18:14.781Z,1.00
2023-02-07T07:20:41.549Z,1.00
2023-02-07T07:23:08.219Z,1.00
2023-02-07T07:25:34.900Z,1.00
2023-02-07T07:28:01.534Z,1.00
2023-02-07T07:30:28.282Z,0.90
2023-02-07T07:32:55.245Z,1.00
2023-02-07T07:35:21.841Z,1.00
2023-02-07T07:37:48.418Z,1.00
2023-02-07T07:40:14.992Z,1.00
2023-02-07T07:42:41.592Z,1.00
2023-02-07T07:45:19.910Z,1.00
2023-02-07T07:47:46.593Z,1.00
2023-02-07T07:50:13.294Z,1.00
2023-02-07T07:52:42.016Z,1.00
2023-02-07T07:55:09.720Z,1.10
2023-02-07T07:57:36.562Z,1.10
2023-02-07T08:00:04.973Z,1.10
2023-02-07T08:02:40.253Z,1.10
2023-02-07T08:05:07.298Z,1.20
2023-02-07T08:07:33.978Z,1.20
2023-02-07T08:10:00.558Z,1.20
2023-02-07T08:12:27.205Z,1.20
2023-02-07T08:14:53.818Z,1.20
2023-02-07T08:17:21.730Z,1.20
2023-02-07T08:19:48.348Z,1.20
2023-02-07T08:22:18.649Z,1.40
2023-02-07T08:24:45.256Z,1.30
2023-02-07T08:27:11.928Z,1.30
2023-02-07T08:29:38.698Z,1.30
2023-02-07T08:32:05.533Z,1.40
2023-02-07T08:34:37.200Z,1.40
2023-02-07T08:37:08.905Z,1.40
2023-02-07T08:39:36.080Z,1.50
2023-02-07T08:42:05.195Z,1.50
2023-02-07T08:44:32.172Z,1.50
2023-02-07T08:46:58.725Z,1.50
2023-02-07T08:49:25.579Z,1.60
2023-02-07T08:51:52.732Z,1.60
2023-02-07T08:54:19.567Z,1.60
2023-02-07T08:56:46.396Z,1.70
2023-02-07T08:59:12.959Z,1.70
2023-02-07T09:01:42.083Z,1.80
2023-02-07T09:04:10.648Z,1.80
2023-02-07T09:06:37.610Z,1.90
2023-02-07T09:09:04.598Z,2.00
2023-02-07T09:11:31.560Z,2.00
2023-02-07T09:13:58.206Z,2.00
2023-02-07T09:16:25.047Z,2.10
2023-02-07T09:18:52.168Z,2.10
2023-02-07T09:21:19.377Z,2.30
2023-02-07T09:23:45.921Z,2.30
2023-02-07T09:26:19.365Z,2.30
2023-02-07T09:28:46.451Z,2.40
2023-02-07T09:31:15.215Z,2.40
2023-02-07T09:33:42.686Z,2.50
2023-02-07T09:36:26.889Z,2.50
2023-02-07T09:38:54.394Z,2.60
2023-02-07T09:41:33.767Z,2.60
2023-02-07T09:44:17.894Z,2.70
2023-02-07T09:47:00.378Z,2.70
2023-02-07T09:49:26.854Z,2.80
2023-02-07T09:51:56.541Z,2.90
2023-02-07T09:54:29.017Z,2.90
2023-02-07T09:56:59.011Z,2.90
2023-02-07T09:59:57.814Z,3.00
2023-02-07T10:02:38.421Z,3.10
2023-02-07T10:05:16.406Z,3.10
2023-02-07T10:07:45.587Z,3.10
2023-02-07T10:10:39.660Z,3.20
2023-02-07T10:13:19.506Z,3.20
2023-02-07T10:16:01.051Z,3.30
2023-02-07T10:18:49.691Z,3.40
2023-02-07T10:21:43.966Z,3.40
2023-02-07T10:24:29.803Z,3.50
2023-02-07T10:27:15.653Z,3.50
2023-02-07T10:29:58.843Z,3.60
2023-02-07T10:32:34.227Z,3.60
2023-02-07T10:35:07.507Z,3.70
2023-02-07T10:37:40.684Z,3.70
2023-02-07T10:40:27.682Z,3.70
2023-02-07T10:43:05.588Z,3.80
2023-02-07T10:45:32.503Z,3.80
2023-02-07T10:47:59.164Z,3.90
2023-02-07T10:50:30.224Z,3.90
2023-02-07T10:52:59.053Z,3.90
2023-02-07T10:55:46.227Z,4.00
2023-02-07T10:58:23.330Z,4.00
2023-02-07T11:00:53.531Z,4.10
2023-02-07T11:03:25.300Z,4.10
2023-02-07T11:06:06.013Z,4.20
2023-02-07T11:08:34.833Z,4.20
2023-02-07T11:11:21.507Z,4.20
2023-02-07T11:13:51.803Z,4.30
2023-02-07T11:16:20.749Z,4.30
2023-02-07T11:19:01.867Z,4.40
2023-02-07T11:21:43.235Z,4.40
2023-02-07T11:24:20.690Z,4.50
2023-02-07T11:27:00.107Z,4.50
2023-02-07T11:29:26.981Z,4.50
2023-02-07T11:31:56.481Z,4.60
2023-02-07T11:34:52.347Z,4.60
2023-02-07T11:37:32.361Z,4.70
2023-02-07T11:40:20.945Z,4.70
2023-02-07T11:43:15.848Z,4.80
2023-02-07T11:45:47.253Z,4.80
2023-02-07T11:48:35.478Z,4.80
2023-02-07T11:51:04.736Z,4.90
2023-02-07T11:53:41.217Z,4.90
2023-02-07T11:56:29.914Z,5.00
2023-02-07T11:58:57.968Z,5.00
2023-02-07T12:01:30.883Z,5.00
2023-02-07T12:04:01.207Z,5.10
2023-02-07T12:06:40.338Z,5.10
2023-02-07T12:09:27.049Z,5.20
2023-02-07T12:11:57.127Z,5.20
2023-02-07T12:14:53.912Z,5.20
2023-02-07T12:17:38.854Z,5.20
2023-02-07T12:20:12.271Z,5.30
2023-02-07T12:22:53.248Z,5.30
2023-02-07T12:25:37.887Z,5.30
2023-02-07T12:28:26.786Z,5.40
2023-02-07T12:30:57.564Z,5.40
2023-02-07T12:33:47.093Z,5.50
2023-02-07T12:36:28.905Z,5.50
2023-02-07T12:39:13.785Z,5.50
2023-02-07T12:41:50.159Z,5.60
2023-02-07T12:44:26.150Z,5.60
2023-02-07T12:47:11.440Z,5.70
2023-02-07T12:50:03.070Z,5.70
2023-02-07T12:52:45.798Z,5.70
2023-02-07T12:55:43.535Z,5.80
2023-02-07T12:58:35.423Z,5.80
2023-02-07T13:01:28.959Z,5.90
2023-02-07T13:04:23.246Z,5.90
2023-02-07T13:07:14.917Z,6.00
2023-02-07T13:10:02.989Z,6.00
2023-02-07T13:12:51.168Z,6.00
2023-02-07T13:15:23.599Z,6.10
2023-02-07T13:18:24.445Z,6.10
2023-02-07T13:20:58.848Z,6.10
2023-02-07T13:23:28.086Z,6.20
2023-02-07T13:25:59.230Z,6.20
2023-02-07T13:28:38.464Z,6.20
2023-02-07T13:31:08.600Z,6.20
2023-02-07T13:33:42.064Z,6.30
2023-02-07T13:36:18.514Z,6.30
2023-02-07T13:38:50.921Z,6.30
2023-02-07T13:41:17.490Z,6.30
2023-02-07T13:44:09.278Z,6.40
2023-02-07T13:46:41.978Z,6.40
2023-02-07T13:49:31.488Z,6.50
2023-02-07T13:52:10.905Z,6.50
2023-02-07T13:54:54.838Z,6.50
2023-02-07T13:58:01.623Z,6.60
2023-02-07T14:00:47.956Z,6.60
2023-02-07T14:03:31.299Z,6.60
2023-02-07T14:06:22.352Z,6.70
2023-02-07T14:09:14.966Z,6.70
2023-02-07T14:11:43.931Z,6.80
2023-02-07T14:14:29.598Z,6.80
2023-02-07T14:17:09.303Z,6.90
2023-02-07T14:19:45.367Z,6.90
2023-02-07T14:22:43.038Z,6.90
2023-02-07T14:25:09.650Z,7.00
2023-02-07T14:28:03.624Z,7.00
2023-02-07T14:30:36.774Z,7.00
2023-02-07T14:33:17.053Z,7.10
2023-02-07T14:36:03.478Z,7.10
2023-02-07T14:39:13.506Z,7.20
2023-02-07T14:41:43.232Z,7.20
2023-02-07T14:44:29.285Z,7.30
2023-02-07T14:46:58.830Z,7.30
2023-02-07T14:49:34.666Z,7.30
2023-02-07T14:52:07.077Z,7.40
2023-02-07T14:54:40.772Z,7.40
2023-02-07T14:57:34.279Z,7.40
2023-02-07T15:00:13.253Z,7.40
2023-02-07T15:02:47.658Z,7.50
2023-02-07T15:05:21.051Z,7.50
2023-02-07T15:07:49.401Z,7.50
2023-02-07T15:10:41.562Z,7.50
2023-02-07T15:13:22.896Z,7.50
2023-02-07T15:15:53.329Z,7.50
2023-02-07T15:18:23.387Z,7.60
2023-02-07T15:20:58.225Z,7.60
2023-02-07T15:23:28.566Z,7.60
2023-02-07T15:25:55.600Z,7.60
2023-02-07T15:28:31.844Z,7.50
2023-02-07T15:31:03.563Z,7.50
2023-02-07T15:33:39.411Z,7.50
2023-02-07T15:36:25.381Z,7.50
2023-02-07T15:38:52.270Z,7.50
2023-02-07T15:41:18.955Z,7.40
2023-02-07T15:44:19.486Z,7.40
2023-02-07T15:46:59.002Z,7.40
2023-02-07T15:49:35.750Z,7.30
2023-02-07T15:52:52.004Z,7.20
2023-02-07T15:55:31.700Z,7.20
2023-02-07T15:57:58.578Z,7.10
2023-02-07T16:00:28.846Z,7.10
2023-02-07T16:02:58.008Z,7.00
2023-02-07T16:05:30.334Z,7.00
2023-02-07T16:07:57.263Z,6.90
2023-02-07T16:10:23.875Z,6.90
2023-02-07T16:13:20.972Z,6.80
2023-02-07T16:15:59.622Z,6.70
2023-02-07T16:18:38.745Z,6.60
2023-02-07T16:21:10.362Z,6.50
2023-02-07T16:23:37.075Z,6.40
2023-02-07T16:26:04.286Z,6.30
2023-02-07T16:28:31.757Z,6.20
2023-02-07T16:30:59.515Z,6.00
2023-02-07T16:33:26.184Z,5.90
2023-02-07T16:35:52.739Z,5.80
2023-02-07T16:38:21.578Z,5.70
2023-02-07T16:40:50.929Z,5.60
2023-02-07T16:43:38.173Z,5.50
2023-02-07T16:46:05.699Z,5.40
2023-02-07T16:48:32.346Z,5.30
2023-02-07T16:51:00.966Z,5.20
2023-02-07T16:53:28.094Z,5.10
2023-02-07T16:55:56.924Z,5.00
2023-02-07T16:58:29.471Z,4.90
2023-02-07T17:00:56.564Z,4.80
2023-02-07T17:03:23.552Z,4.70
2023-02-07T17:05:50.714Z,4.60
2023-02-07T17:08:22.976Z,4.50
2023-02-07T17:11:00.472Z,4.40
2023-02-07T17:13:27.522Z,4.40
2023-02-07T17:15:54.524Z,4.30
2023-02-07T17:18:21.188Z,4.10
2023-02-07T17:20:50.908Z,4.10
2023-02-07T17:23:22.925Z,4.00
2023-02-07T17:25:50.436Z,4.00
2023-02-07T17:28:26.489Z,3.90
2023-02-07T17:30:54.578Z,3.80
2023-02-07T17:33:21.170Z,3.80
2023-02-07T17:35:47.924Z,3.70
2023-02-07T17:38:14.714Z,3.70
2023-02-07T17:40:43.896Z,3.70
2023-02-07T17:43:10.647Z,3.60
2023-02-07T17:45:37.702Z,3.60
2023-02-07T17:48:05.161Z,3.50
2023-02-07T17:50:44.352Z,3.50
2023-02-07T17:53:12.190Z,3.50
2023-02-07T17:55:43.355Z,3.40
2023-02-07T17:58:11.468Z,3.40
2023-02-07T18:00:43.410Z,3.40
2023-02-07T18:03:11.283Z,3.30
2023-02-07T18:05:40.159Z,3.30
2023-02-07T18:08:06.745Z,3.30
2023-02-07T18:10:36.367Z,3.20
2023-02-07T18:13:03.027Z,3.20
2023-02-07T18:15:30.176Z,3.10
2023-02-07T18:18:02.549Z,3.10
2023-02-07T18:20:40.863Z,3.10
2023-02-07T18:23:19.348Z,3.10
2023-02-07T18:25:50.349Z,3.00
2023-02-07T18:28:17.758Z,3.00
2023-02-07T18:30:46.044Z,3.00
2023-02-07T18:33:15.009Z,2.90
2023-02-07T18:35:41.615Z,2.90
2023-02-07T18:38:08.288Z,2.90
2023-02-07T18:40:40.230Z,2.90
2023-02-07T18:43:11.929Z,2.90
2023-02-07T18:45:46.841Z,2.90
2023-02-07T18:48:16.330Z,2.80
2023-02-07T18:50:44.763Z,2.80
2023-02-07T18:53:12.893Z,2.80
2023-02-07T18:55:42.107Z,2.80
2023-02-07T18:58:11.601Z,2.80
2023-02-07T19:00:39.784Z,2.70
2023-02-07T19:03:06.677Z,2.70
2023-02-07T19:05:38.722Z,2.70
2023-02-07T19:08:08.025Z,2.70
2023-02-07T19:10:36.598Z,2.70
2023-02-07T19:13:05.466Z,2.70
2023-02-07T19:15:32.395Z,2.70
2023-02-07T19:17:58.987Z,2.60
2023-02-07T19:20:25.605Z,2.60
2023-02-07T19:22:52.592Z,2.60
2023-02-07T19:25:19.252Z,2.50
2023-02-07T19:27:45.894Z,2.50
2023-02-07T19:30:13.009Z,2.50
2023-02-07T19:32:40.544Z,2.50
2023-02-07T19:35:09.607Z,2.50
2023-02-07T19:37:37.479Z,2.40
2023-02-07T19:40:05.119Z,2.50
2023-02-07T19:42:31.952Z,2.40
2023-02-07T19:45:02.818Z,2.40
2023-02-07T19:47:29.530Z,2.40
2023-02-07T19:49:56.142Z,2.40
2023-02-07T19:52:23.599Z,2.30
2023-02-07T19:54:50.628Z,2.40
2023-02-07T19:57:18.656Z,2.30
2023-02-07T19:59:48.084Z,2.30
2023-02-07T20:02:14.808Z,2.30
2023-02-07T20:04:41.556Z,2.30
2023-02-07T20:07:08.218Z,2.30
2023-02-07T20:09:34.874Z,2.20
2023-02-07T20:12:01.479Z,2.20
2023-02-07T20:14:28.091Z,2.20
2023-02-07T20:16:54.879Z,2.20
2023-02-07T20:19:22.181Z,2.20
2023-02-07T20:21:50.804Z,2.20
2023-02-07T20:24:17.394Z,2.20
2023-02-07T20:26:46.341Z,2.10
2023-02-07T20:29:15.419Z,2.10
2023-02-07T20:31:43.707Z,2.10
2023-02-07T20:34:11.029Z,2.10
2023-02-07T20:36:42.372Z,2.10
2023-02-07T20:39:19.511Z,2.10
2023-02-07T20:41:47.200Z,2.10
2023-02-07T20:44:16.763Z,2.00
2023-02-07T20:46:46.334Z,2.00
2023-02-07T20:49:19.459Z,2.00
2023-02-07T20:51:52.857Z,2.00
2023-02-07T20:54:23.270Z,2.00
2023-02-07T20:56:57.707Z,1.90
2023-02-07T20:59:27.221Z,1.90
2023-02-07T21:01:56.655Z,1.90
2023-02-07T21:04:24.051Z,1.90
2023-02-07T21:06:58.434Z,1.80
2023-02-07T21:09:25.141Z,1.80
2023-02-07T21:11:53.014Z,1.80
2023-02-07T21:14:26.988Z,1.80
2023-02-07T21:16:55.157Z,1.80
2023-02-07T21:19:25.722Z,1.80
2023-02-07T21:21:54.851Z,1.70
2023-02-07T21:24:24.730Z,1.80
2023-02-07T21:26:52.923Z,1.70
2023-02-07T21:29:20.680Z,1.70
2023-02-07T21:31:48.651Z,1.70
2023-02-07T21:34:20.231Z,1.70
2023-02-07T21:36:48.502Z,1.70
2023-02-07T21:39:18.251Z,1.70
2023-02-07T21:41:46.261Z,1.70
2023-02-07T21:44:14.008Z,1.70
2023-02-07T21:46:45.940Z,1.60
2023-02-07T21:49:15.852Z,1.60
2023-02-07T21:51:44.780Z,1.60
2023-02-07T21:54:11.684Z,1.60
2023-02-07T21:56:40.191Z,1.60
2023-02-07T21:59:12.439Z,1.60
2023-02-07T22:01:39.211Z,1.60
2023-02-07T22:04:10.537Z,1.50
2023-02-07T22:06:46.755Z,1.50
2023-02-07T22:09:15.085Z,1.50
2023-02-07T22:11:42.246Z,1.50
2023-02-07T22:14:15.168Z,1.50
2023-02-07T22:16:42.161Z,1.50
2023-02-07T22:19:17.779Z,1.50
2023-02-07T22:21:45.115Z,1.40
2023-02-07T22:24:14.065Z,1.40
2023-02-07T22:26:40.974Z,1.40
2023-02-07T22:29:17.821Z,1.40
2023-02-07T22:31:44.516Z,1.40
2023-02-07T22:34:15.093Z,1.50
2023-02-07T22:36:47.256Z,1.30
2023-02-07T22:39:17.720Z,1.30
2023-02-07T22:41:45.585Z,1.30
2023-02-07T22:44:16.029Z,1.30
2023-02-07T22:46:43.300Z,1.30
2023-02-07T22:49:09.875Z,1.30
2023-02-07T22:51:37.963Z,1.30
2023-02-07T22:54:07.279Z,1.20
2023-02-07T22:56:36.021Z,1.20
2023-02-07T22:59:05.210Z,1.20
2023-02-07T23:01:38.556Z,1.20
2023-02-07T23:04:11.142Z,1.20
2023-02-07T23:06:37.984Z,1.10
2023-02-07T23:09:05.319Z,1.10
2023-02-07T23:11:37.408Z,1.10
2023-02-07T23:14:05.563Z,1.20
2023-02-07T23:16:35.450Z,1.20
2023-02-07T23:19:10.712Z,1.10
2023-02-07T23:21:42.290Z,1.10
2023-02-07T23:24:11.273Z,1.10
2023-02-07T23:26:38.141Z,1.10
2023-02-07T23:29:05.315Z,1.10
2023-02-07T23:31:36.970Z,1.20
2023-02-07T23:34:03.588Z,1.10
2023-02-07T23:36:30.333Z,1.00
2023-02-07T23:38:56.954Z,1.00
2023-02-07T23:41:25.827Z,1.00
2023-02-07T23:43:56.370Z,1.00
2023-02-07T23:46:26.040Z,1.00
2023-02-07T23:48:53.102Z,1.00
2023-02-07T23:51:21.918Z,1.00
2023-02-07T23:53:51.279Z,1.00
2023-02-07T23:56:21.766Z,1.00
2023-02-07T23:58:51.656Z,1.00
